Time;durP1;ratioP1;P1;durP2;ratioP2;P2;SDS_P1;SDS_P2;PMS_P1;PMS_P2;Temp;Humidity;BMP_temperature;BMP_pressure;BME280_temperature;BME280_humidity;BME280_pressure;Samples;Min_cycle;Max_cycle;Signal;HPM_P1;HPM_P2
2021/05/11 00:00:49;;;;;;;2.15;1.95;;;15.90;77.90;;;;;;5044219;28;20238;-92
2021/05/11 00:03:15;;;;;;;2.20;1.70;;;15.90;77.90;;;;;;5038421;28;20873;-90
2021/05/11 00:05:42;;;;;;;5.50;1.80;;;16.00;76.30;;;;;;5051863;28;20237;-92
2021/05/11 00:08:09;;;;;;;2.45;1.65;;;16.00;77.20;;;;;;5057432;28;20198;-91
2021/05/11 00:10:35;;;;;;;4.65;1.70;;;15.90;77.90;;;;;;5049858;28;20233;-91
2021/05/11 00:13:02;;;;;;;2.10;1.60;;;15.80;77.80;;;;;;5054339;28;20221;-92
2021/05/11 00:15:29;;;;;;;2.97;1.85;;;15.70;77.80;;;;;;5046397;28;20642;-92
2021/05/11 00:17:55;;;;;;;1.95;1.40;;;15.60;77.80;;;;;;5042293;28;20217;-93
2021/05/11 00:20:22;;;;;;;2.88;1.58;;;15.60;77.70;;;;;;5052800;28;20233;-92
2021/05/11 00:22:48;;;;;;;3.13;1.50;;;15.60;77.70;;;;;;5051832;28;20591;-92
2021/05/11 00:25:16;;;;;;;1.70;1.60;;;15.50;77.70;;;;;;5056389;28;20218;-91
2021/05/11 00:27:42;;;;;;;2.10;1.42;;;15.50;77.70;;;;;;5057950;28;20268;-90
2021/05/11 00:30:10;;;;;;;2.20;1.70;;;15.40;77.60;;;;;;5059688;28;20221;-91
2021/05/11 00:32:37;;;;;;;1.50;1.40;;;15.40;77.60;;;;;;5058511;28;20256;-91
2021/05/11 00:35:04;;;;;;;3.10;1.50;;;15.40;77.60;;;;;;5060580;28;20208;-92
2021/05/11 00:37:32;;;;;;;2.65;1.40;;;15.40;77.60;;;;;;5056447;28;20203;-93
2021/05/11 00:39:59;;;;;;;3.80;1.98;;;15.40;77.60;;;;;;5051098;28;20305;-91
2021/05/11 00:42:26;;;;;;;5.63;1.50;;;15.20;77.50;;;;;;5058171;28;20960;-93
2021/05/11 00:44:53;;;;;;;2.00;1.35;;;15.20;78.50;;;;;;5053292;28;20680;-91
2021/05/11 00:47:19;;;;;;;1.65;1.40;;;15.20;79.00;;;;;;5057441;28;20231;-91
2021/05/11 00:49:48;;;;;;;1.90;1.40;;;15.20;79.50;;;;;;5053130;28;20629;-91
2021/05/11 00:52:14;;;;;;;2.97;1.38;;;15.30;78.30;;;;;;5052895;28;20230;-91
2021/05/11 00:54:41;;;;;;;4.22;1.65;;;15.30;77.50;;;;;;5057643;28;20229;-91
2021/05/11 00:57:08;;;;;;;1.95;1.70;;;15.30;77.90;;;;;;5053286;28;20570;-91
2021/05/11 00:59:35;;;;;;;2.70;1.50;;;15.40;77.60;;;;;;5056815;28;20279;-91
2021/05/11 01:02:04;;;;;;;5.45;1.50;;;15.30;78.60;;;;;;5054292;28;20229;-93
2021/05/11 01:04:31;;;;;;;2.30;1.60;;;15.30;77.50;;;;;;5066577;28;20202;-92
2021/05/11 01:06:58;;;;;;;1.90;1.38;;;15.30;78.60;;;;;;5056828;28;20240;-91
2021/05/11 01:09:25;;;;;;;6.13;1.42;;;15.20;79.40;;;;;;5060608;28;20194;-92
2021/05/11 01:11:52;;;;;;;1.73;1.48;;;15.30;77.50;;;;;;5057550;28;20233;-91
2021/05/11 01:14:19;;;;;;;1.70;1.27;;;15.30;77.50;;;;;;5066944;28;20202;-92
2021/05/11 01:16:49;;;;;;;1.50;1.40;;;15.20;78.30;;;;;;5058134;28;20639;-92
2021/05/11 01:19:19;;;;;;;1.42;1.30;;;15.10;77.50;;;;;;5068984;28;20201;-91
2021/05/11 01:21:50;;;;;;;1.80;1.40;;;15.10;79.00;;;;;;5063625;28;20587;-91
2021/05/11 01:24:20;;;;;;;1.60;1.50;;;15.10;78.60;;;;;;5072222;28;20664;-91
2021/05/11 01:26:49;;;;;;;1.50;1.40;;;15.00;78.50;;;;;;5066103;28;20237;-92
2021/05/11 01:29:39;;;;;;;1.75;1.30;;;15.00;79.60;;;;;;5061470;28;20230;-91
2021/05/11 01:48:50;;;;;;;1.35;1.25;;;14.40;82.80;;;;;;5040128;28;20202;-91
2021/05/11 01:51:26;;;;;;;1.63;1.40;;;14.30;83.90;;;;;;5061500;28;20501;-91
2021/05/11 01:57:00;;;;;;;1.95;1.50;;;14.30;83.10;;;;;;5057102;28;20276;-91
2021/05/11 02:10:49;;;;;;;2.17;1.23;;;14.10;84.20;;;;;;5064001;28;20759;-91
2021/05/11 02:24:18;;;;;;;2.67;1.40;;;13.90;85.90;;;;;;5046388;28;20212;-90
2021/05/11 02:26:45;;;;;;;1.65;1.20;;;13.80;86.10;;;;;;5066355;28;20232;-91
2021/05/11 02:29:12;;;;;;;1.67;1.30;;;13.80;86.50;;;;;;5063401;28;20285;-90
2021/05/11 02:31:41;;;;;;;2.00;1.10;;;13.80;86.30;;;;;;5058250;28;20226;-90
2021/05/11 02:36:49;;;;;;;2.65;1.50;;;13.80;87.40;;;;;;5066244;28;20228;-92
2021/05/11 02:39:15;;;;;;;1.45;1.35;;;13.80;87.20;;;;;;5064554;28;20228;-90
2021/05/11 02:41:51;;;;;;;2.38;1.20;;;13.80;87.40;;;;;;5067419;28;20249;-89
2021/05/11 02:47:17;;;;;;;1.17;1.10;;;13.90;85.70;;;;;;5060059;28;20218;-90
2021/05/11 02:49:49;;;;;;;1.42;1.20;;;13.90;85.60;;;;;;5074532;28;20257;-90
2021/05/11 02:52:17;;;;;;;2.53;1.15;;;13.90;85.70;;;;;;5057145;28;20225;-90
2021/05/11 02:54:44;;;;;;;1.95;1.10;;;13.80;85.80;;;;;;5050148;28;20221;-89
2021/05/11 02:57:11;;;;;;;1.30;1.10;;;13.80;86.40;;;;;;5072198;28;20260;-89
2021/05/11 02:59:39;;;;;;;1.60;1.20;;;13.70;87.30;;;;;;5062170;28;20226;-89
2021/05/11 03:02:07;;;;;;;2.00;1.20;;;13.60;88.10;;;;;;5067952;28;20224;-90
2021/05/11 03:04:34;;;;;;;1.85;1.15;;;13.50;88.70;;;;;;5068548;28;20293;-89
2021/05/11 03:07:01;;;;;;;2.47;1.10;;;13.50;89.80;;;;;;5054066;28;20291;-91
2021/05/11 03:09:30;;;;;;;3.60;1.10;;;13.40;90.00;;;;;;5079460;28;20202;-89
2021/05/11 03:11:57;;;;;;;1.20;1.10;;;13.40;90.10;;;;;;5069197;28;20241;-91
2021/05/11 03:14:28;;;;;;;1.65;1.00;;;13.40;90.30;;;;;;5069935;28;20189;-90
2021/05/11 03:16:55;;;;;;;1.63;1.20;;;13.40;90.10;;;;;;5066517;28;20868;-89
2021/05/11 03:19:22;;;;;;;1.25;1.00;;;13.40;90.00;;;;;;5073167;28;20209;-89
2021/05/11 03:21:58;;;;;;;1.40;1.30;;;13.40;89.90;;;;;;5063169;28;20380;-90
2021/05/11 03:24:35;;;;;;;1.80;1.52;;;13.40;90.00;;;;;;5068373;28;20197;-90
2021/05/11 03:27:01;;;;;;;3.40;1.40;;;13.50;89.50;;;;;;5070019;28;20225;-91
2021/05/11 03:29:29;;;;;;;1.55;1.17;;;13.60;88.70;;;;;;5071438;28;20281;-90
2021/05/11 03:34:39;;;;;;;1.60;1.15;;;13.60;88.60;;;;;;5055061;28;20285;-90
2021/05/11 03:37:07;;;;;;;1.30;1.00;;;13.60;87.90;;;;;;5069998;28;20241;-90
2021/05/11 03:39:38;;;;;;;1.05;0.95;;;13.60;88.00;;;;;;5070470;28;20204;-89
2021/05/11 03:42:10;;;;;;;1.45;1.10;;;13.60;87.40;;;;;;5067005;28;20233;-89
2021/05/11 03:44:39;;;;;;;3.22;1.50;;;13.50;88.40;;;;;;5062401;28;20239;-89
2021/05/11 03:47:06;;;;;;;1.40;1.30;;;13.40;89.60;;;;;;5065057;28;20230;-91
2021/05/11 03:49:32;;;;;;;1.20;1.10;;;13.30;90.00;;;;;;5071706;28;20195;-91
2021/05/11 03:52:00;;;;;;;3.67;1.30;;;13.20;90.60;;;;;;5069622;28;20233;-90
2021/05/11 03:54:26;;;;;;;1.77;1.30;;;13.30;90.40;;;;;;5071148;28;20237;-90
2021/05/11 03:56:52;;;;;;;2.47;1.00;;;13.20;90.30;;;;;;5067834;28;20229;-90
2021/05/11 03:59:23;;;;;;;5.72;1.40;;;13.20;90.60;;;;;;5072769;28;20190;-89
2021/05/11 04:01:53;;;;;;;2.28;1.30;;;13.20;90.70;;;;;;5065470;28;20252;-90
2021/05/11 04:04:22;;;;;;;1.20;1.10;;;13.40;90.00;;;;;;5070812;28;20208;-90
2021/05/11 04:07:07;;;;;;;2.05;1.20;;;13.40;90.00;;;;;;5051923;28;20233;-91
2021/05/11 04:09:44;;;;;;;2.90;1.60;;;13.40;90.10;;;;;;5072228;28;20210;-90
2021/05/11 04:12:29;;;;;;;4.07;1.20;;;13.30;90.40;;;;;;5051478;28;20222;-91
2021/05/11 04:17:44;;;;;;;1.58;1.40;;;13.40;89.70;;;;;;5059955;28;20245;-90
2021/05/11 04:23:09;;;;;;;1.33;1.23;;;13.60;89.50;;;;;;5070268;28;20212;-91
2021/05/11 04:25:52;;;;;;;2.08;1.27;;;13.50;89.20;;;;;;5053229;28;20293;-91
2021/05/11 04:28:34;;;;;;;;;;;;;;;;;;;;;
2021/05/11 04:31:04;;;;;;;2.80;1.30;;;13.50;89.30;;;;;;5073664;28;20647;-91
2021/05/11 04:33:37;;;;;;;2.05;1.30;;;13.40;90.10;;;;;;5075632;28;20266;-89
2021/05/11 04:38:51;;;;;;;2.97;1.55;;;13.40;90.20;;;;;;5071892;28;20213;-90
2021/05/11 04:41:18;;;;;;;5.20;1.52;;;13.30;89.80;;;;;;5064752;28;20222;-89
2021/05/11 04:43:45;;;;;;;4.35;1.60;;;13.20;90.50;;;;;;5072510;28;20269;-90
2021/05/11 04:46:23;;;;;;;3.72;1.50;;;13.30;90.10;;;;;;5070590;28;20237;-90
2021/05/11 04:48:51;;;;;;;3.38;1.52;;;13.20;90.20;;;;;;5072264;28;20202;-90
2021/05/11 04:51:20;;;;;;;2.83;1.70;;;13.20;90.40;;;;;;5076748;28;20233;-90
2021/05/11 04:53:49;;;;;;;2.90;1.50;;;13.10;90.80;;;;;;5053667;28;20269;-89
2021/05/11 04:56:15;;;;;;;1.95;1.50;;;13.20;90.40;;;;;;5070785;28;20630;-89
2021/05/11 04:58:41;;;;;;;2.03;1.60;;;13.20;90.10;;;;;;5072438;28;20637;-89
2021/05/11 05:01:08;;;;;;;4.68;1.40;;;13.20;90.60;;;;;;5070197;28;20238;-89
2021/05/11 05:06:51;;;;;;;3.35;1.67;;;13.30;90.80;;;;;;5014317;28;20235;-91
2021/05/11 05:10:03;;;;;;;6.28;1.80;;;13.30;90.70;;;;;;5016008;28;20200;-91
2021/05/11 05:12:34;;;;;;;3.42;1.50;;;13.50;89.70;;;;;;5062192;28;20244;-91
2021/05/11 05:19:06;;;;;;;2.67;1.67;;;13.70;89.00;;;;;;5026653;28;20260;-92
2021/05/11 05:21:44;;;;;;;3.58;1.70;;;13.80;89.40;;;;;;5075059;28;20291;-92
2021/05/11 05:24:18;;;;;;;2.15;1.40;;;14.00;85.60;;;;;;5073604;28;20197;-92
2021/05/11 05:26:49;;;;;;;5.45;1.80;;;14.20;84.00;;;;;;5050296;28;20260;-89
2021/05/11 05:29:16;;;;;;;1.85;1.42;;;14.60;82.20;;;;;;5044230;22;20232;-90
2021/05/11 05:31:43;;;;;;;4.43;1.63;;;14.70;81.60;;;;;;5017704;28;20243;-91
2021/05/11 05:34:09;;;;;;;4.20;1.80;;;15.00;80.10;;;;;;5005654;28;20204;-91
2021/05/11 05:36:36;;;;;;;3.97;1.83;;;15.20;77.90;;;;;;5003462;28;20640;-91
2021/05/11 05:39:03;;;;;;;4.72;1.63;;;15.30;78.40;;;;;;5001192;28;20613;-91
2021/05/11 05:41:33;;;;;;;5.13;1.70;;;15.30;78.50;;;;;;4996403;28;20286;-91
2021/05/11 05:44:00;;;;;;;4.15;1.60;;;15.50;77.70;;;;;;5000955;28;20714;-92
2021/05/11 05:46:26;;;;;;;4.03;1.60;;;15.70;77.80;;;;;;5000883;28;20235;-91
2021/05/11 05:48:53;;;;;;;2.60;1.85;;;15.90;75.80;;;;;;5001531;28;20203;-90
2021/05/11 05:51:47;;;;;;;4.97;1.85;;;16.10;74.30;;;;;;5001987;28;20698;-90
2021/05/11 05:55:02;;;;;;;3.70;1.88;;;16.50;72.10;;;;;;5004122;28;20273;-90
2021/05/11 05:57:45;;;;;;;3.92;1.63;;;16.50;70.10;;;;;;5004221;28;20627;-91
2021/05/11 06:00:15;;;;;;;5.28;2.22;;;16.70;67.70;;;;;;5004568;28;20215;-90
2021/05/11 06:02:44;;;;;;;6.65;2.03;;;16.50;69.50;;;;;;5003525;28;20667;-91
2021/05/11 06:05:12;;;;;;;3.95;2.10;;;16.40;69.00;;;;;;5003184;28;20206;-91
2021/05/11 06:07:38;;;;;;;5.72;2.08;;;16.30;70.40;;;;;;5000621;28;20196;-91
2021/05/11 06:10:05;;;;;;;4.97;2.13;;;16.40;69.00;;;;;;4996821;28;20200;-90
2021/05/11 06:12:35;;;;;;;4.43;1.58;;;16.30;70.30;;;;;;4999624;28;20192;-90
2021/05/11 06:17:45;;;;;;;4.47;1.70;;;16.30;71.60;;;;;;5002340;28;20576;-90
2021/05/11 06:20:14;;;;;;;8.52;2.00;;;16.40;71.60;;;;;;5003383;28;20702;-89
2021/05/11 06:23:36;;;;;;;4.50;1.77;;;16.30;71.30;;;;;;5005611;28;20200;-90
2021/05/11 06:26:03;;;;;;;4.40;1.70;;;16.30;70.60;;;;;;5001703;28;20300;-92
2021/05/11 06:28:29;;;;;;;3.45;2.10;;;16.20;72.00;;;;;;5000397;28;20220;-88
2021/05/11 06:30:56;;;;;;;8.80;1.92;;;16.20;70.70;;;;;;5002753;28;20239;-92
2021/05/11 06:33:25;;;;;;;3.38;1.60;;;16.10;71.80;;;;;;5002821;28;20199;-89
2021/05/11 06:35:53;;;;;;;4.40;1.90;;;16.10;72.40;;;;;;5001012;28;20687;-90
2021/05/11 06:38:21;;;;;;;5.45;2.22;;;16.20;75.30;;;;;;4998199;28;20210;-92
2021/05/11 06:40:48;;;;;;;3.08;1.90;;;16.00;73.90;;;;;;5002044;28;20709;-92
2021/05/11 06:43:17;;;;;;;5.47;2.35;;;16.10;75.40;;;;;;4999960;28;20663;-91
2021/05/11 06:48:38;;;;;;;7.93;2.88;;;16.10;72.20;;;;;;4987058;28;20243;-91
2021/05/11 06:53:51;;;;;;;2.65;1.75;;;16.20;74.90;;;;;;4997162;28;20206;-93
2021/05/11 06:56:20;;;;;;;2.70;2.10;;;16.30;71.10;;;;;;4994488;28;20695;-92
2021/05/11 06:58:47;;;;;;;4.00;1.58;;;16.40;70.30;;;;;;4984055;28;20663;-91
2021/05/11 07:01:15;;;;;;;3.28;1.80;;;16.50;70.70;;;;;;5001286;28;20227;-91
2021/05/11 07:03:44;;;;;;;5.13;1.98;;;16.40;71.30;;;;;;4988974;28;20363;-91
2021/05/11 07:06:12;;;;;;;5.60;1.85;;;16.30;71.00;;;;;;4999769;28;20232;-93
2021/05/11 07:08:41;;;;;;;4.18;2.00;;;16.20;70.20;;;;;;4999590;28;20196;-93
2021/05/11 07:13:06;;;;;;;5.95;1.70;;;16.10;71.00;;;;;;4998514;28;20215;-92
2021/05/11 07:14:16;;;;;;;2.22;1.95;;;16.00;72.20;;;;;;4995794;28;20196;-89
2021/05/11 07:16:51;;;;;;;4.20;1.95;;;16.10;71.50;;;;;;4998403;28;20282;-91
2021/05/11 07:21:59;;;;;;;8.65;2.40;;;16.10;71.80;;;;;;4992274;28;20226;-89
2021/05/11 07:24:27;;;;;;;2.38;2.08;;;16.00;72.70;;;;;;5002447;28;20207;-91
2021/05/11 07:27:12;;;;;;;3.08;1.83;;;16.10;73.00;;;;;;4997773;28;20211;-91
2021/05/11 07:29:45;;;;;;;4.13;2.03;;;16.10;71.70;;;;;;5004980;28;20709;-91
2021/05/11 07:32:12;;;;;;;4.22;2.28;;;16.30;70.60;;;;;;4999798;28;20656;-91
2021/05/11 07:34:53;;;;;;;3.40;2.22;;;16.20;70.70;;;;;;4994850;28;20235;-92
2021/05/11 07:37:19;;;;;;;5.38;1.92;;;16.10;72.30;;;;;;4999467;28;20199;-89
2021/05/11 07:39:46;;;;;;;4.22;2.10;;;16.20;70.40;;;;;;5005005;28;20196;-91
2021/05/11 07:42:13;;;;;;;4.80;2.15;;;16.10;70.70;;;;;;4995691;28;20282;-92
2021/05/11 07:47:26;;;;;;;3.25;2.10;;;16.20;71.50;;;;;;4986084;28;20250;-91
2021/05/11 07:50:14;;;;;;;4.75;2.05;;;16.20;70.40;;;;;;4976538;28;20646;-93
2021/05/11 08:15:33;;;;;;;3.67;2.08;;;16.20;72.70;;;;;;4992104;28;20242;-92
2021/05/11 08:18:21;;;;;;;9.82;3.05;;;16.30;74.10;;;;;;5002448;28;20215;-93
2021/05/11 08:29:39;;;;;;;4.38;2.60;;;16.10;72.70;;;;;;4997272;28;20235;-91
2021/05/11 08:32:06;;;;;;;7.90;2.40;;;15.90;75.10;;;;;;4992523;28;20234;-91
2021/05/11 08:34:32;;;;;;;6.38;2.58;;;15.90;75.70;;;;;;4996765;28;20207;-89
2021/05/11 08:36:59;;;;;;;5.05;2.80;;;15.80;75.80;;;;;;4995702;28;20228;-90
2021/05/11 08:39:28;;;;;;;5.82;2.40;;;15.80;76.40;;;;;;4995492;28;20214;-89
2021/05/11 08:42:02;;;;;;;3.38;2.60;;;15.80;77.00;;;;;;4983154;28;20383;-89
2021/05/11 08:44:29;;;;;;;5.15;2.25;;;15.70;76.90;;;;;;4995531;28;20204;-89
2021/05/11 08:47:01;;;;;;;6.38;2.50;;;15.70;77.80;;;;;;4993512;28;20408;-89
2021/05/11 08:49:39;;;;;;;4.60;2.28;;;15.70;77.70;;;;;;4992662;28;20239;-88
2021/05/11 08:52:11;;;;;;;6.82;2.67;;;15.80;77.80;;;;;;4992498;28;20219;-89
2021/05/11 08:54:51;;;;;;;6.28;2.40;;;15.80;77.20;;;;;;4991344;28;20553;-89
2021/05/11 09:06:16;;;;;;;4.80;2.47;;;15.70;77.80;;;;;;4990600;28;20243;-89
2021/05/11 09:08:53;;;;;;;6.38;2.53;;;15.80;77.80;;;;;;4995677;28;20964;-89
2021/05/11 09:15:02;;;;;;;8.15;2.67;;;15.90;77.90;;;;;;5006073;28;20202;-92
2021/05/11 09:25:41;;;;;;;7.20;2.78;;;16.30;75.50;;;;;;4999177;28;20294;-91
2021/05/11 09:28:36;;;;;;;7.82;2.80;;;16.20;75.50;;;;;;4994332;28;20274;-91
2021/05/11 09:34:08;;;;;;;6.25;2.70;;;16.30;75.60;;;;;;5000091;28;20355;-91
2021/05/11 09:51:29;;;;;;;3.58;2.67;;;17.00;70.90;;;;;;5134061;27;20783;-88
2021/05/11 09:57:02;;;;;;;5.80;2.92;;;17.40;69.60;;;;;;5070121;28;20386;-87
2021/05/11 09:59:44;;;;;;;5.68;2.83;;;17.40;68.00;;;;;;5110316;28;20224;-86
2021/05/11 10:39:36;;;;;;;6.57;3.28;;;17.80;63.50;;;;;;5106362;28;20246;-92
2021/05/11 10:42:24;;;;;;;8.55;2.92;;;17.80;64.00;;;;;;5101450;28;20235;-89
2021/05/11 10:48:21;;;;;;;3.85;2.60;;;17.90;63.80;;;;;;5110257;28;20255;-88
2021/05/11 10:50:50;;;;;;;3.20;2.53;;;18.20;63.30;;;;;;5118776;28;20222;-90
2021/05/11 10:54:00;;;;;;;5.22;2.85;;;18.20;60.90;;;;;;5105547;28;20565;-90
2021/05/11 10:57:03;;;;;;;4.68;2.90;;;18.30;59.00;;;;;;5105045;28;20243;-94
2021/05/11 10:59:45;;;;;;;7.10;2.47;;;18.70;57.60;;;;;;5091166;28;20203;-88
2021/05/11 11:05:12;;;;;;;4.60;3.25;;;18.00;60.80;;;;;;5114591;28;20286;-87
2021/05/11 11:07:41;;;;;;;4.03;2.30;;;18.40;60.30;;;;;;5115147;28;20251;-87
2021/05/11 11:10:09;;;;;;;11.90;3.40;;;18.70;59.50;;;;;;5116221;28;20680;-88
2021/05/11 11:12:44;;;;;;;4.45;2.60;;;19.00;56.20;;;;;;5098936;28;20292;-89
2021/05/11 11:15:17;;;;;;;5.65;2.85;;;19.40;55.30;;;;;;5095823;28;20192;-86
2021/05/11 11:18:21;;;;;;;8.85;2.97;;;19.70;57.70;;;;;;5104345;28;20231;-85
2021/05/11 11:20:48;;;;;;;6.03;3.13;;;19.60;55.50;;;;;;5095709;28;20251;-85
2021/05/11 11:23:33;;;;;;;6.22;3.35;;;19.40;55.30;;;;;;5100839;28;20197;-86
2021/05/11 11:26:05;;;;;;;5.68;2.65;;;19.30;55.30;;;;;;5097086;28;20231;-91
2021/05/11 11:28:33;;;;;;;6.40;3.10;;;19.30;55.30;;;;;;5087754;28;20231;-87
2021/05/11 11:30:59;;;;;;;9.05;3.08;;;19.40;56.50;;;;;;5073347;28;20219;-89
2021/05/11 11:33:26;;;;;;;6.28;2.97;;;19.40;53.90;;;;;;5098393;28;20232;-91
2021/05/11 11:35:52;;;;;;;9.40;3.10;;;19.40;55.30;;;;;;5102867;28;20239;-88
2021/05/11 11:38:23;;;;;;;6.25;3.38;;;19.40;53.30;;;;;;5093919;28;20208;-89
2021/05/11 11:40:58;;;;;;;5.95;3.10;;;19.60;52.20;;;;;;5094341;28;20223;-88
2021/05/11 11:43:26;;;;;;;5.88;3.00;;;19.80;54.10;;;;;;5095774;28;20200;-90
2021/05/11 11:45:53;;;;;;;8.05;3.00;;;20.00;53.90;;;;;;5097389;28;20228;-90
2021/05/11 11:48:23;;;;;;;8.55;3.03;;;20.30;53.10;;;;;;5098753;28;20227;-88
2021/05/11 11:50:54;;;;;;;7.10;2.92;;;20.30;52.30;;;;;;5097704;28;20224;-92
2021/05/11 11:53:24;;;;;;;6.90;2.78;;;20.30;51.20;;;;;;5092367;28;20196;-91
2021/05/11 11:56:22;;;;;;;6.65;2.70;;;20.60;52.40;;;;;;5099390;28;20219;-89
2021/05/11 11:58:49;;;;;;;4.07;2.97;;;20.50;51.60;;;;;;5089243;28;20303;-90
2021/05/11 12:04:11;;;;;;;6.15;3.05;;;20.20;51.70;;;;;;5112903;28;20204;-89
2021/05/11 12:06:38;;;;;;;5.93;2.70;;;19.60;52.80;;;;;;5096853;28;20220;-88
2021/05/11 12:09:04;;;;;;;4.85;2.45;;;19.80;53.30;;;;;;5095892;28;20213;-89
2021/05/11 12:11:34;;;;;;;6.07;2.42;;;19.80;54.30;;;;;;5102713;28;20217;-90
2021/05/11 12:14:06;;;;;;;4.30;2.72;;;20.10;54.20;;;;;;5092295;28;20240;-91
2021/05/11 12:16:41;;;;;;;9.32;3.03;;;20.20;54.20;;;;;;5100354;28;20240;-90
2021/05/11 12:21:54;;;;;;;10.25;2.60;;;20.40;53.80;;;;;;5095339;28;20219;-90
2021/05/11 12:24:24;;;;;;;7.50;2.97;;;20.70;52.30;;;;;;5098210;28;20235;-90
2021/05/11 12:26:50;;;;;;;7.28;2.78;;;21.20;47.60;;;;;;5096403;28;20686;-91
2021/05/11 12:29:18;;;;;;;10.65;3.50;;;21.40;50.20;;;;;;5104485;28;20216;-91
2021/05/11 12:31:47;;;;;;;11.27;3.38;;;21.60;48.30;;;;;;5098338;28;20305;-89
2021/05/11 12:34:15;;;;;;;6.88;3.55;;;22.00;46.60;;;;;;5097081;28;20242;-89
2021/05/11 12:36:48;;;;;;;6.43;3.50;;;22.00;44.40;;;;;;5103784;28;20248;-89
2021/05/11 12:39:21;;;;;;;4.03;3.20;;;22.20;45.20;;;;;;5094611;28;20201;-88
2021/05/11 12:42:42;;;;;;;6.70;3.72;;;22.30;45.70;;;;;;5103665;28;20737;-89
2021/05/11 12:45:14;;;;;;;13.05;3.92;;;21.80;46.90;;;;;;5096711;28;20282;-89
2021/05/11 12:47:43;;;;;;;11.60;3.90;;;21.70;47.40;;;;;;5106758;28;20224;-88
2021/05/11 12:50:19;;;;;;;11.82;4.25;;;21.10;48.60;;;;;;5101153;28;20226;-89
2021/05/11 12:52:46;;;;;;;8.10;4.25;;;20.80;50.60;;;;;;5110862;28;20200;-89
2021/05/11 12:57:58;;;;;;;8.45;3.60;;;20.90;51.10;;;;;;5098862;28;20211;-90
2021/05/11 13:00:42;;;;;;;6.47;4.20;;;21.00;50.90;;;;;;5101107;28;20200;-89
2021/05/11 13:15:12;;;;;;;4.43;3.83;;;21.20;49.80;;;;;;5112019;28;20569;-90
2021/05/11 13:21:01;;;;;;;6.55;4.30;;;21.10;50.40;;;;;;5085675;28;20238;-89
2021/05/11 13:26:09;;;;;;;10.55;5.13;;;20.80;53.50;;;;;;5094862;28;20227;-91
2021/05/11 13:28:42;;;;;;;9.43;4.30;;;20.80;54.00;;;;;;5088245;28;20226;-87
2021/05/11 13:31:16;;;;;;;8.75;4.15;;;20.60;53.50;;;;;;5096772;28;20563;-90
2021/05/11 13:33:47;;;;;;;10.68;3.83;;;20.70;54.00;;;;;;5107497;28;20216;-92
2021/05/11 13:36:55;;;;;;;9.35;4.07;;;20.80;54.40;;;;;;5095063;28;20249;-92
2021/05/11 13:39:21;;;;;;;7.05;4.30;;;20.70;55.20;;;;;;5081934;28;20200;-86
2021/05/11 13:41:48;;;;;;;8.88;4.35;;;20.80;51.70;;;;;;5090829;28;20223;-91
2021/05/11 13:44:37;;;;;;;12.48;4.43;;;20.50;53.30;;;;;;5102135;28;20224;-89
2021/05/11 13:47:10;;;;;;;7.20;4.00;;;20.40;53.50;;;;;;5101632;28;20251;-90
2021/05/11 13:49:37;;;;;;;9.18;4.88;;;20.30;56.10;;;;;;5096272;28;20227;-89
2021/05/11 13:52:07;;;;;;;7.80;4.82;;;20.00;55.90;;;;;;5098743;28;20217;-89
2021/05/11 13:54:34;;;;;;;10.20;4.30;;;19.80;56.00;;;;;;5093275;28;20187;-88
2021/05/11 13:57:15;;;;;;;11.23;4.38;;;19.70;58.30;;;;;;5090865;28;20224;-92
2021/05/11 14:02:43;;;;;;;6.60;4.55;;;19.30;61.80;;;;;;5048426;28;20320;-89
2021/05/11 14:05:10;;;;;;;7.63;4.60;;;19.20;62.30;;;;;;5087752;28;20211;-92
2021/05/11 14:07:38;;;;;;;8.02;4.63;;;19.10;64.00;;;;;;5098130;28;20216;-90
2021/05/11 14:10:06;;;;;;;7.30;4.43;;;19.00;63.00;;;;;;5109447;28;20210;-89
2021/05/11 14:12:32;;;;;;;10.73;5.10;;;19.20;61.30;;;;;;5100341;28;20227;-90
2021/05/11 14:14:59;;;;;;;8.05;5.10;;;19.10;60.60;;;;;;5126777;22;20234;-88
2021/05/11 14:17:25;;;;;;;15.25;5.18;;;19.10;61.30;;;;;;5052554;28;20229;-88
2021/05/11 14:19:53;;;;;;;9.93;5.30;;;19.30;61.10;;;;;;5054991;28;20245;-95
2021/05/11 14:22:20;;;;;;;13.68;5.65;;;19.60;59.80;;;;;;5051345;28;20307;-88
2021/05/11 14:24:50;;;;;;;8.55;5.80;;;19.80;59.20;;;;;;5046598;28;20669;-91
2021/05/11 14:27:25;;;;;;;8.65;6.10;;;20.00;58.60;;;;;;5046468;28;20226;-90
2021/05/11 14:29:51;;;;;;;11.45;6.20;;;20.20;56.10;;;;;;5047363;28;20635;-91
2021/05/11 14:32:18;;;;;;;6.88;6.18;;;20.30;56.20;;;;;;5045316;28;20227;-90
2021/05/11 14:34:44;;;;;;;8.00;5.70;;;20.20;56.10;;;;;;5059729;28;20651;-88
2021/05/11 14:37:14;;;;;;;8.23;5.40;;;20.30;56.10;;;;;;5051181;28;20301;-88
2021/05/11 14:39:41;;;;;;;5.95;4.85;;;20.20;56.10;;;;;;5057419;28;20198;-88
2021/05/11 14:42:10;;;;;;;8.48;4.70;;;20.30;56.10;;;;;;5055004;28;20226;-90
2021/05/11 14:44:36;;;;;;;10.50;5.80;;;20.30;56.10;;;;;;5057637;28;20203;-87
2021/05/11 14:47:04;;;;;;;10.98;5.32;;;20.20;56.10;;;;;;5054742;28;20320;-89
2021/05/11 14:49:31;;;;;;;6.70;4.97;;;20.10;56.00;;;;;;5058211;28;20217;-88
2021/05/11 14:51:58;;;;;;;7.03;5.13;;;20.10;56.00;;;;;;5051191;28;20244;-89
2021/05/11 14:54:25;;;;;;;9.85;4.68;;;20.10;56.00;;;;;;5056092;28;20688;-87
2021/05/11 14:56:51;;;;;;;6.53;5.00;;;19.90;56.10;;;;;;5060112;28;20305;-87
2021/05/11 14:59:19;;;;;;;5.70;4.63;;;19.70;57.30;;;;;;5060112;28;20201;-88
2021/05/11 15:01:46;;;;;;;7.50;5.28;;;19.50;58.30;;;;;;5052095;28;20230;-87
2021/05/11 15:04:13;;;;;;;6.13;4.72;;;19.30;59.60;;;;;;5053441;28;20205;-88
2021/05/11 15:06:39;;;;;;;8.55;4.57;;;19.10;61.50;;;;;;5069685;28;20232;-89
2021/05/11 15:09:07;;;;;;;9.15;4.68;;;18.90;62.20;;;;;;5067165;28;20247;-88
2021/05/11 15:11:34;;;;;;;9.90;4.85;;;18.80;63.20;;;;;;5063941;28;20267;-88
2021/05/11 15:14:01;;;;;;;7.53;4.68;;;18.70;63.00;;;;;;5062838;28;20216;-89
2021/05/11 15:16:31;;;;;;;8.23;4.65;;;18.70;63.90;;;;;;5064104;28;20217;-89
2021/05/11 15:18:57;;;;;;;8.10;4.63;;;18.80;64.90;;;;;;5066268;28;20201;-88
2021/05/11 15:21:24;;;;;;;8.65;4.40;;;18.70;64.70;;;;;;5064415;28;20245;-87
2021/05/11 15:23:50;;;;;;;8.98;4.40;;;18.60;65.40;;;;;;5058572;28;20212;-87
2021/05/11 15:26:17;;;;;;;7.18;4.95;;;18.60;65.50;;;;;;5053503;28;20228;-87
2021/05/11 15:28:45;;;;;;;8.25;5.10;;;18.70;65.90;;;;;;5050311;28;20329;-87
2021/05/11 15:31:12;;;;;;;5.78;5.20;;;18.50;66.80;;;;;;5051736;28;20282;-87
2021/05/11 15:33:39;;;;;;;8.27;5.57;;;18.40;68.80;;;;;;5057156;28;20194;-87
2021/05/11 15:36:07;;;;;;;8.45;5.75;;;18.30;69.20;;;;;;5063909;28;20283;-88
2021/05/11 15:38:33;;;;;;;9.30;5.72;;;18.20;70.00;;;;;;5056667;28;20195;-87
2021/05/11 15:41:00;;;;;;;7.53;5.70;;;18.30;68.90;;;;;;5052519;28;20230;-87
2021/05/11 15:43:28;;;;;;;7.63;5.82;;;18.20;70.00;;;;;;5056246;28;20292;-89
2021/05/11 15:45:54;;;;;;;12.15;6.00;;;18.30;68.70;;;;;;5055523;28;20226;-88
2021/05/11 15:48:21;;;;;;;6.75;6.13;;;18.30;69.70;;;;;;5061652;28;20245;-87
2021/05/11 15:50:48;;;;;;;10.57;6.65;;;18.40;68.80;;;;;;5050392;28;20589;-87
2021/05/11 15:53:18;;;;;;;7.13;6.47;;;18.40;67.60;;;;;;5051717;28;20207;-87
2021/05/11 15:55:47;;;;;;;7.95;6.70;;;18.30;67.30;;;;;;5056520;28;20225;-87
2021/05/11 15:58:23;;;;;;;8.88;6.93;;;18.30;67.10;;;;;;5049409;28;20208;-89
2021/05/11 16:03:48;;;;;;;9.45;6.90;;;17.90;68.90;;;;;;5055001;28;20209;-90
2021/05/11 16:06:49;;;;;;;10.48;6.68;;;18.00;69.50;;;;;;5051864;28;20240;-88
2021/05/11 16:09:31;;;;;;;;;;;;;;;;;;;;;
2021/05/11 16:12:46;;;;;;;7.78;6.00;;;17.80;70.00;;;;;;5033420;28;20218;-90
2021/05/11 16:15:46;;;;;;;8.98;7.82;;;17.80;69.30;;;;;;5040343;28;20203;-90
2021/05/11 16:18:21;;;;;;;8.20;6.55;;;17.60;70.60;;;;;;5048506;28;20714;-88
2021/05/11 16:23:37;;;;;;;8.23;6.70;;;17.60;72.60;;;;;;5039895;28;20325;-90
2021/05/11 16:26:04;;;;;;;9.43;6.38;;;17.60;72.60;;;;;;5046079;28;20336;-89
2021/05/11 16:28:30;;;;;;;8.18;6.80;;;17.40;73.20;;;;;;5050075;28;20821;-91
2021/05/11 16:30:57;;;;;;;8.82;7.13;;;17.30;75.50;;;;;;5043369;28;20253;-89
2021/05/11 16:33:24;;;;;;;9.75;7.68;;;17.20;75.80;;;;;;5044817;28;20210;-88
2021/05/11 16:35:50;;;;;;;9.30;8.40;;;17.10;77.20;;;;;;5050130;28;20225;-91
2021/05/11 16:38:16;;;;;;;10.65;8.60;;;17.00;77.90;;;;;;5048137;28;20223;-92
2021/05/11 16:40:44;;;;;;;10.43;7.65;;;17.10;78.80;;;;;;5048978;28;20225;-89
2021/05/11 16:43:11;;;;;;;11.25;8.93;;;17.10;78.80;;;;;;5054144;28;20297;-90
2021/05/11 16:45:38;;;;;;;9.27;8.13;;;17.10;78.30;;;;;;5049419;28;20317;-87
2021/05/11 16:48:05;;;;;;;11.32;8.90;;;17.00;78.70;;;;;;5050236;28;20221;-90
2021/05/11 16:50:34;;;;;;;12.02;9.05;;;17.10;78.80;;;;;;5048570;28;20225;-89
2021/05/11 16:53:02;;;;;;;12.40;9.40;;;17.00;78.70;;;;;;5051205;28;20224;-89
2021/05/11 16:55:29;;;;;;;10.35;9.35;;;16.90;78.60;;;;;;5057180;28;20232;-89
2021/05/11 16:57:57;;;;;;;12.95;9.68;;;16.90;78.60;;;;;;5055259;28;20265;-88
2021/05/11 17:00:24;;;;;;;13.25;10.25;;;16.70;78.50;;;;;;5050327;28;20653;-87